sensor_id;sensor_type;location;lat;lon;timestamp;P1;durP1;ratioP1;P2;durP2;ratioP2
18780;SDS011;9519;51.890;8.970;2023-08-07T00:03:30;12.37;;;5.43;;
18780;SDS011;9519;51.890;8.970;2023-08-07T00:08:34;11.53;;;5.93;;
18780;SDS011;9519;51.890;8.970;2023-08-07T00:13:38;17.03;;;6.07;;
18780;SDS011;9519;51.890;8.970;2023-08-07T00:18:40;10.93;;;5.13;;
18780;SDS011;9519;51.890;8.970;2023-08-07T00:23:43;8.20;;;4.93;;
18780;SDS011;9519;51.890;8.970;2023-08-07T00:28:46;13.57;;;5.30;;
18780;SDS011;9519;51.890;8.970;2023-08-07T00:33:50;10.90;;;5.10;;
18780;SDS011;9519;51.890;8.970;2023-08-07T00:38:55;10.17;;;4.80;;
18780;SDS011;9519;51.890;8.970;2023-08-07T00:43:58;10.27;;;4.53;;
18780;SDS011;9519;51.890;8.970;2023-08-07T00:49:00;12.77;;;5.03;;
18780;SDS011;9519;51.890;8.970;2023-08-07T00:54:04;12.37;;;4.60;;
18780;SDS011;9519;51.890;8.970;2023-08-07T00:59:07;13.80;;;5.00;;
18780;SDS011;9519;51.890;8.970;2023-08-07T01:04:10;10.47;;;5.00;;
18780;SDS011;9519;51.890;8.970;2023-08-07T01:09:14;9.60;;;4.50;;
18780;SDS011;9519;51.890;8.970;2023-08-07T01:14:19;10.87;;;5.37;;
18780;SDS011;9519;51.890;8.970;2023-08-07T01:19:34;9.67;;;4.70;;
18780;SDS011;9519;51.890;8.970;2023-08-07T01:24:39;13.10;;;4.27;;
18780;SDS011;9519;51.890;8.970;2023-08-07T01:29:43;10.17;;;3.53;;
18780;SDS011;9519;51.890;8.970;2023-08-07T01:34:56;9.60;;;3.23;;
18780;SDS011;9519;51.890;8.970;2023-08-07T01:40:04;6.67;;;3.97;;
18780;SDS011;9519;51.890;8.970;2023-08-07T01:45:09;8.97;;;3.50;;
18780;SDS011;9519;51.890;8.970;2023-08-07T01:50:11;13.53;;;4.40;;
18780;SDS011;9519;51.890;8.970;2023-08-07T01:55:15;11.33;;;4.23;;
18780;SDS011;9519;51.890;8.970;2023-08-07T02:00:19;10.90;;;4.47;;
18780;SDS011;9519;51.890;8.970;2023-08-07T02:05:22;10.67;;;4.70;;
18780;SDS011;9519;51.890;8.970;2023-08-07T02:10:25;8.80;;;3.80;;
18780;SDS011;9519;51.890;8.970;2023-08-07T02:15:28;8.50;;;3.90;;
18780;SDS011;9519;51.890;8.970;2023-08-07T02:20:30;6.27;;;3.50;;
18780;SDS011;9519;51.890;8.970;2023-08-07T02:25:34;9.30;;;3.23;;
18780;SDS011;9519;51.890;8.970;2023-08-07T02:30:36;9.53;;;3.60;;
18780;SDS011;9519;51.890;8.970;2023-08-07T02:35:38;11.50;;;5.27;;
18780;SDS011;9519;51.890;8.970;2023-08-07T02:40:41;13.43;;;5.60;;
18780;SDS011;9519;51.890;8.970;2023-08-07T02:45:44;10.93;;;5.50;;
18780;SDS011;9519;51.890;8.970;2023-08-07T02:50:46;16.87;;;6.30;;
18780;SDS011;9519;51.890;8.970;2023-08-07T02:55:52;9.10;;;4.97;;
18780;SDS011;9519;51.890;8.970;2023-08-07T03:00:54;11.63;;;5.97;;
18780;SDS011;9519;51.890;8.970;2023-08-07T03:05:56;12.60;;;5.93;;
18780;SDS011;9519;51.890;8.970;2023-08-07T03:11:00;12.03;;;5.80;;
18780;SDS011;9519;51.890;8.970;2023-08-07T03:16:02;11.10;;;4.93;;
18780;SDS011;9519;51.890;8.970;2023-08-07T03:21:07;10.03;;;5.80;;
18780;SDS011;9519;51.890;8.970;2023-08-07T03:26:11;9.47;;;5.37;;
18780;SDS011;9519;51.890;8.970;2023-08-07T03:31:14;11.63;;;6.03;;
18780;SDS011;9519;51.890;8.970;2023-08-07T03:36:16;8.33;;;5.90;;
18780;SDS011;9519;51.890;8.970;2023-08-07T03:41:19;9.43;;;5.87;;
18780;SDS011;9519;51.890;8.970;2023-08-07T03:46:21;14.33;;;6.67;;
18780;SDS011;9519;51.890;8.970;2023-08-07T03:51:23;12.67;;;8.33;;
18780;SDS011;9519;51.890;8.970;2023-08-07T03:56:27;13.50;;;7.83;;
18780;SDS011;9519;51.890;8.970;2023-08-07T04:01:32;11.90;;;8.40;;
18780;SDS011;9519;51.890;8.970;2023-08-07T04:06:34;16.13;;;7.90;;
18780;SDS011;9519;51.890;8.970;2023-08-07T04:11:38;12.00;;;7.47;;
18780;SDS011;9519;51.890;8.970;2023-08-07T04:16:42;16.20;;;8.33;;
18780;SDS011;9519;51.890;8.970;2023-08-07T04:21:44;11.33;;;8.30;;
18780;SDS011;9519;51.890;8.970;2023-08-07T04:26:47;15.53;;;9.00;;
18780;SDS011;9519;51.890;8.970;2023-08-07T04:31:49;11.33;;;8.00;;
18780;SDS011;9519;51.890;8.970;2023-08-07T04:36:51;13.93;;;8.50;;
18780;SDS011;9519;51.890;8.970;2023-08-07T04:41:55;13.20;;;8.33;;
18780;SDS011;9519;51.890;8.970;2023-08-07T04:46:57;12.00;;;9.03;;
18780;SDS011;9519;51.890;8.970;2023-08-07T04:51:59;13.23;;;9.87;;
18780;SDS011;9519;51.890;8.970;2023-08-07T04:57:03;13.00;;;9.93;;
18780;SDS011;9519;51.890;8.970;2023-08-07T05:02:05;11.80;;;9.53;;
18780;SDS011;9519;51.890;8.970;2023-08-07T05:07:08;16.27;;;9.97;;
18780;SDS011;9519;51.890;8.970;2023-08-07T05:12:11;13.13;;;8.93;;
18780;SDS011;9519;51.890;8.970;2023-08-07T05:17:13;11.80;;;7.73;;
18780;SDS011;9519;51.890;8.970;2023-08-07T05:22:15;9.00;;;6.20;;
18780;SDS011;9519;51.890;8.970;2023-08-07T05:27:19;7.47;;;4.60;;
18780;SDS011;9519;51.890;8.970;2023-08-07T05:32:21;8.43;;;5.20;;
18780;SDS011;9519;51.890;8.970;2023-08-07T05:37:23;12.03;;;6.20;;
18780;SDS011;9519;51.890;8.970;2023-08-07T05:42:28;9.87;;;6.63;;
18780;SDS011;9519;51.890;8.970;2023-08-07T05:47:31;9.57;;;5.50;;
18780;SDS011;9519;51.890;8.970;2023-08-07T05:52:34;9.97;;;5.93;;
18780;SDS011;9519;51.890;8.970;2023-08-07T05:57:37;9.47;;;5.10;;
18780;SDS011;9519;51.890;8.970;2023-08-07T06:02:39;9.73;;;4.63;;
18780;SDS011;9519;51.890;8.970;2023-08-07T06:07:41;7.87;;;4.40;;
18780;SDS011;9519;51.890;8.970;2023-08-07T06:12:45;8.40;;;4.77;;
18780;SDS011;9519;51.890;8.970;2023-08-07T06:17:47;7.70;;;3.70;;
18780;SDS011;9519;51.890;8.970;2023-08-07T06:22:51;8.67;;;3.93;;
18780;SDS011;9519;51.890;8.970;2023-08-07T06:27:54;7.10;;;3.73;;
18780;SDS011;9519;51.890;8.970;2023-08-07T06:32:56;8.83;;;2.80;;
18780;SDS011;9519;51.890;8.970;2023-08-07T06:37:58;8.30;;;3.00;;
18780;SDS011;9519;51.890;8.970;2023-08-07T06:43:02;10.73;;;3.07;;
18780;SDS011;9519;51.890;8.970;2023-08-07T06:48:04;5.50;;;2.37;;
18780;SDS011;9519;51.890;8.970;2023-08-07T06:53:06;6.77;;;2.43;;
18780;SDS011;9519;51.890;8.970;2023-08-07T06:58:10;7.63;;;2.27;;
18780;SDS011;9519;51.890;8.970;2023-08-07T07:03:12;6.47;;;2.10;;
18780;SDS011;9519;51.890;8.970;2023-08-07T07:08:15;6.00;;;2.60;;
18780;SDS011;9519;51.890;8.970;2023-08-07T07:13:18;4.80;;;1.80;;
18780;SDS011;9519;51.890;8.970;2023-08-07T07:18:20;6.93;;;2.17;;
18780;SDS011;9519;51.890;8.970;2023-08-07T07:23:22;5.27;;;2.00;;
18780;SDS011;9519;51.890;8.970;2023-08-07T07:28:25;5.20;;;2.27;;
18780;SDS011;9519;51.890;8.970;2023-08-07T07:33:28;5.37;;;2.50;;
18780;SDS011;9519;51.890;8.970;2023-08-07T07:38:31;4.53;;;2.30;;
18780;SDS011;9519;51.890;8.970;2023-08-07T07:43:35;4.80;;;1.90;;
18780;SDS011;9519;51.890;8.970;2023-08-07T07:48:37;4.47;;;1.83;;
18780;SDS011;9519;51.890;8.970;2023-08-07T07:53:39;5.50;;;2.40;;
18780;SDS011;9519;51.890;8.970;2023-08-07T07:58:42;7.13;;;2.40;;
18780;SDS011;9519;51.890;8.970;2023-08-07T08:03:44;5.57;;;2.30;;
18780;SDS011;9519;51.890;8.970;2023-08-07T08:08:46;4.40;;;1.60;;
18780;SDS011;9519;51.890;8.970;2023-08-07T08:13:50;4.53;;;1.90;;
18780;SDS011;9519;51.890;8.970;2023-08-07T08:18:52;6.30;;;2.20;;
18780;SDS011;9519;51.890;8.970;2023-08-07T08:23:54;5.55;;;2.50;;
18780;SDS011;9519;51.890;8.970;2023-08-07T08:28:58;7.80;;;2.50;;
18780;SDS011;9519;51.890;8.970;2023-08-07T08:34:00;9.75;;;2.97;;
18780;SDS011;9519;51.890;8.970;2023-08-07T08:39:03;4.90;;;2.08;;
18780;SDS011;9519;51.890;8.970;2023-08-07T08:44:06;5.45;;;1.80;;
18780;SDS011;9519;51.890;8.970;2023-08-07T08:49:12;2.60;;;1.20;;
18780;SDS011;9519;51.890;8.970;2023-08-07T08:54:24;2.58;;;1.10;;
18780;SDS011;9519;51.890;8.970;2023-08-07T08:59:28;1.58;;;0.88;;
18780;SDS011;9519;51.890;8.970;2023-08-07T09:04:33;2.40;;;1.30;;
18780;SDS011;9519;51.890;8.970;2023-08-07T09:09:35;4.32;;;2.17;;
18780;SDS011;9519;51.890;8.970;2023-08-07T09:14:40;9.10;;;2.60;;
18780;SDS011;9519;51.890;8.970;2023-08-07T09:19:46;8.15;;;2.85;;
18780;SDS011;9519;51.890;8.970;2023-08-07T09:24:48;10.13;;;3.15;;
18780;SDS011;9519;51.890;8.970;2023-08-07T09:29:52;7.47;;;3.10;;
18780;SDS011;9519;51.890;8.970;2023-08-07T09:34:57;5.75;;;2.40;;
18780;SDS011;9519;51.890;8.970;2023-08-07T09:40:02;7.22;;;2.22;;
18780;SDS011;9519;51.890;8.970;2023-08-07T09:45:19;8.10;;;2.50;;
18780;SDS011;9519;51.890;8.970;2023-08-07T09:50:23;7.72;;;2.65;;
18780;SDS011;9519;51.890;8.970;2023-08-07T09:55:27;5.57;;;2.75;;
18780;SDS011;9519;51.890;8.970;2023-08-07T10:00:34;11.05;;;3.17;;
18780;SDS011;9519;51.890;8.970;2023-08-07T10:05:36;6.75;;;3.10;;
18780;SDS011;9519;51.890;8.970;2023-08-07T10:10:38;10.05;;;2.95;;
18780;SDS011;9519;51.890;8.970;2023-08-07T10:15:42;9.35;;;2.40;;
18780;SDS011;9519;51.890;8.970;2023-08-07T10:20:45;14.30;;;2.95;;
18780;SDS011;9519;51.890;8.970;2023-08-07T10:25:48;8.02;;;2.35;;
18780;SDS011;9519;51.890;8.970;2023-08-07T10:30:53;7.32;;;2.67;;
18780;SDS011;9519;51.890;8.970;2023-08-07T10:35:57;8.65;;;2.42;;
18780;SDS011;9519;51.890;8.970;2023-08-07T10:41:00;5.22;;;2.10;;
18780;SDS011;9519;51.890;8.970;2023-08-07T10:46:08;7.32;;;2.33;;
18780;SDS011;9519;51.890;8.970;2023-08-07T10:51:13;9.88;;;2.97;;
18780;SDS011;9519;51.890;8.970;2023-08-07T10:56:16;8.32;;;2.03;;
18780;SDS011;9519;51.890;8.970;2023-08-07T11:01:39;7.90;;;2.83;;
18780;SDS011;9519;51.890;8.970;2023-08-07T11:06:43;9.25;;;2.20;;
18780;SDS011;9519;51.890;8.970;2023-08-07T11:11:49;4.68;;;1.67;;
18780;SDS011;9519;51.890;8.970;2023-08-07T11:16:52;5.28;;;1.60;;
18780;SDS011;9519;51.890;8.970;2023-08-07T11:21:55;3.95;;;1.55;;
18780;SDS011;9519;51.890;8.970;2023-08-07T11:26:58;5.75;;;1.50;;
18780;SDS011;9519;51.890;8.970;2023-08-07T11:32:02;8.52;;;1.52;;
18780;SDS011;9519;51.890;8.970;2023-08-07T11:37:06;5.55;;;1.95;;
18780;SDS011;9519;51.890;8.970;2023-08-07T11:42:08;8.88;;;2.33;;
18780;SDS011;9519;51.890;8.970;2023-08-07T11:47:11;6.57;;;1.65;;
18780;SDS011;9519;51.890;8.970;2023-08-07T11:52:22;9.02;;;2.50;;
18780;SDS011;9519;51.890;8.970;2023-08-07T11:57:59;10.77;;;2.50;;
18780;SDS011;9519;51.890;8.970;2023-08-07T12:03:32;10.43;;;2.93;;
18780;SDS011;9519;51.890;8.970;2023-08-07T12:08:39;9.70;;;3.00;;
18780;SDS011;9519;51.890;8.970;2023-08-07T12:13:42;7.70;;;3.20;;
18780;SDS011;9519;51.890;8.970;2023-08-07T12:18:48;10.45;;;3.08;;
18780;SDS011;9519;51.890;8.970;2023-08-07T12:23:54;11.35;;;3.00;;
18780;SDS011;9519;51.890;8.970;2023-08-07T12:28:57;11.80;;;3.42;;
18780;SDS011;9519;51.890;8.970;2023-08-07T12:34:00;11.48;;;3.10;;
18780;SDS011;9519;51.890;8.970;2023-08-07T12:45:39;13.40;;;3.47;;
18780;SDS011;9519;51.890;8.970;2023-08-07T12:51:07;10.23;;;3.03;;
18780;SDS011;9519;51.890;8.970;2023-08-07T12:56:09;8.57;;;2.60;;
18780;SDS011;9519;51.890;8.970;2023-08-07T13:01:11;10.02;;;3.03;;
18780;SDS011;9519;51.890;8.970;2023-08-07T13:06:14;6.95;;;2.58;;
18780;SDS011;9519;51.890;8.970;2023-08-07T13:11:17;9.50;;;2.75;;
18780;SDS011;9519;51.890;8.970;2023-08-07T13:16:19;9.48;;;3.35;;
18780;SDS011;9519;51.890;8.970;2023-08-07T13:21:22;10.43;;;2.95;;
18780;SDS011;9519;51.890;8.970;2023-08-07T13:26:25;9.95;;;3.33;;
18780;SDS011;9519;51.890;8.970;2023-08-07T13:31:27;8.82;;;3.00;;
18780;SDS011;9519;51.890;8.970;2023-08-07T13:36:30;8.77;;;2.88;;
18780;SDS011;9519;51.890;8.970;2023-08-07T13:41:32;6.20;;;2.03;;
18780;SDS011;9519;51.890;8.970;2023-08-07T13:46:35;6.75;;;2.03;;
18780;SDS011;9519;51.890;8.970;2023-08-07T13:51:38;8.80;;;2.00;;
18780;SDS011;9519;51.890;8.970;2023-08-07T13:56:41;6.13;;;2.08;;
18780;SDS011;9519;51.890;8.970;2023-08-07T14:01:44;7.65;;;2.22;;
18780;SDS011;9519;51.890;8.970;2023-08-07T14:06:48;8.70;;;2.00;;
18780;SDS011;9519;51.890;8.970;2023-08-07T14:11:50;7.65;;;2.20;;
18780;SDS011;9519;51.890;8.970;2023-08-07T14:16:53;8.05;;;2.22;;
18780;SDS011;9519;51.890;8.970;2023-08-07T14:21:58;6.50;;;2.38;;
18780;SDS011;9519;51.890;8.970;2023-08-07T14:27:00;7.63;;;2.28;;
18780;SDS011;9519;51.890;8.970;2023-08-07T14:32:03;12.60;;;3.15;;
18780;SDS011;9519;51.890;8.970;2023-08-07T14:43:23;5.93;;;2.20;;
18780;SDS011;9519;51.890;8.970;2023-08-07T14:48:26;12.30;;;3.25;;
18780;SDS011;9519;51.890;8.970;2023-08-07T14:53:28;8.05;;;2.28;;
18780;SDS011;9519;51.890;8.970;2023-08-07T14:58:31;6.63;;;2.42;;
18780;SDS011;9519;51.890;8.970;2023-08-07T15:03:34;9.15;;;2.53;;
18780;SDS011;9519;51.890;8.970;2023-08-07T15:08:36;7.88;;;1.92;;
18780;SDS011;9519;51.890;8.970;2023-08-07T15:13:39;8.38;;;2.22;;
18780;SDS011;9519;51.890;8.970;2023-08-07T15:18:41;9.88;;;2.63;;
18780;SDS011;9519;51.890;8.970;2023-08-07T15:23:43;8.15;;;1.73;;
18780;SDS011;9519;51.890;8.970;2023-08-07T15:28:49;9.80;;;2.08;;
18780;SDS011;9519;51.890;8.970;2023-08-07T15:33:51;9.15;;;2.20;;
18780;SDS011;9519;51.890;8.970;2023-08-07T15:38:56;6.03;;;2.28;;
18780;SDS011;9519;51.890;8.970;2023-08-07T15:43:59;7.22;;;1.95;;
18780;SDS011;9519;51.890;8.970;2023-08-07T15:49:01;10.80;;;2.22;;
18780;SDS011;9519;51.890;8.970;2023-08-07T15:54:04;6.50;;;1.90;;
18780;SDS011;9519;51.890;8.970;2023-08-07T15:59:07;6.20;;;2.13;;
18780;SDS011;9519;51.890;8.970;2023-08-07T16:04:09;8.90;;;1.95;;
18780;SDS011;9519;51.890;8.970;2023-08-07T16:09:11;4.18;;;1.50;;
18780;SDS011;9519;51.890;8.970;2023-08-07T16:14:15;6.20;;;1.88;;
18780;SDS011;9519;51.890;8.970;2023-08-07T16:19:18;6.93;;;2.00;;
18780;SDS011;9519;51.890;8.970;2023-08-07T16:24:21;6.82;;;2.08;;
18780;SDS011;9519;51.890;8.970;2023-08-07T16:29:24;6.03;;;1.70;;
18780;SDS011;9519;51.890;8.970;2023-08-07T16:34:26;7.03;;;2.63;;
18780;SDS011;9519;51.890;8.970;2023-08-07T16:39:28;6.22;;;2.08;;
18780;SDS011;9519;51.890;8.970;2023-08-07T16:44:32;6.00;;;2.45;;
18780;SDS011;9519;51.890;8.970;2023-08-07T16:49:34;7.45;;;2.55;;
18780;SDS011;9519;51.890;8.970;2023-08-07T16:54:36;13.47;;;2.67;;
18780;SDS011;9519;51.890;8.970;2023-08-07T16:59:40;6.20;;;2.38;;
18780;SDS011;9519;51.890;8.970;2023-08-07T17:04:42;6.43;;;2.28;;
18780;SDS011;9519;51.890;8.970;2023-08-07T17:09:44;8.43;;;2.90;;
18780;SDS011;9519;51.890;8.970;2023-08-07T17:14:49;7.80;;;2.42;;
18780;SDS011;9519;51.890;8.970;2023-08-07T17:19:51;7.63;;;2.60;;
18780;SDS011;9519;51.890;8.970;2023-08-07T17:24:53;8.68;;;2.83;;
18780;SDS011;9519;51.890;8.970;2023-08-07T17:29:57;7.47;;;2.40;;
18780;SDS011;9519;51.890;8.970;2023-08-07T17:34:59;9.47;;;3.53;;
18780;SDS011;9519;51.890;8.970;2023-08-07T17:40:01;9.67;;;2.70;;
18780;SDS011;9519;51.890;8.970;2023-08-07T17:45:06;11.53;;;2.97;;
18780;SDS011;9519;51.890;8.970;2023-08-07T17:50:10;11.97;;;2.93;;
18780;SDS011;9519;51.890;8.970;2023-08-07T17:55:12;6.70;;;2.30;;
18780;SDS011;9519;51.890;8.970;2023-08-07T18:00:16;8.65;;;3.10;;
18780;SDS011;9519;51.890;8.970;2023-08-07T18:05:19;10.75;;;2.88;;
18780;SDS011;9519;51.890;8.970;2023-08-07T18:10:21;8.60;;;2.53;;
18780;SDS011;9519;51.890;8.970;2023-08-07T18:15:25;6.60;;;2.20;;
18780;SDS011;9519;51.890;8.970;2023-08-07T18:20:27;6.00;;;2.40;;
18780;SDS011;9519;51.890;8.970;2023-08-07T18:25:29;9.70;;;3.10;;
18780;SDS011;9519;51.890;8.970;2023-08-07T18:30:33;6.03;;;2.55;;
18780;SDS011;9519;51.890;8.970;2023-08-07T18:35:35;7.18;;;2.78;;
18780;SDS011;9519;51.890;8.970;2023-08-07T18:40:37;5.88;;;2.10;;
18780;SDS011;9519;51.890;8.970;2023-08-07T18:45:40;7.32;;;2.55;;
18780;SDS011;9519;51.890;8.970;2023-08-07T18:50:42;7.47;;;2.60;;
18780;SDS011;9519;51.890;8.970;2023-08-07T18:55:44;7.70;;;2.50;;
18780;SDS011;9519;51.890;8.970;2023-08-07T19:00:48;9.82;;;2.60;;
18780;SDS011;9519;51.890;8.970;2023-08-07T19:05:50;7.60;;;2.67;;
18780;SDS011;9519;51.890;8.970;2023-08-07T19:10:52;6.15;;;2.50;;
18780;SDS011;9519;51.890;8.970;2023-08-07T19:15:56;6.03;;;2.67;;
18780;SDS011;9519;51.890;8.970;2023-08-07T19:20:58;8.33;;;2.60;;
18780;SDS011;9519;51.890;8.970;2023-08-07T19:26:03;6.70;;;2.60;;
18780;SDS011;9519;51.890;8.970;2023-08-07T19:31:07;6.13;;;2.40;;
18780;SDS011;9519;51.890;8.970;2023-08-07T19:36:09;9.77;;;2.80;;
18780;SDS011;9519;51.890;8.970;2023-08-07T19:41:12;7.63;;;2.50;;
18780;SDS011;9519;51.890;8.970;2023-08-07T19:46:15;9.60;;;2.70;;
18780;SDS011;9519;51.890;8.970;2023-08-07T19:51:19;7.83;;;2.50;;
18780;SDS011;9519;51.890;8.970;2023-08-07T19:56:21;7.83;;;2.40;;
18780;SDS011;9519;51.890;8.970;2023-08-07T20:01:24;5.73;;;2.20;;
18780;SDS011;9519;51.890;8.970;2023-08-07T20:06:26;9.03;;;2.17;;
18780;SDS011;9519;51.890;8.970;2023-08-07T20:11:34;7.23;;;2.30;;
18780;SDS011;9519;51.890;8.970;2023-08-07T20:16:38;7.53;;;2.83;;
18780;SDS011;9519;51.890;8.970;2023-08-07T20:21:41;6.63;;;2.20;;
18780;SDS011;9519;51.890;8.970;2023-08-07T20:26:43;8.97;;;2.53;;
18780;SDS011;9519;51.890;8.970;2023-08-07T20:31:46;7.23;;;2.17;;
18780;SDS011;9519;51.890;8.970;2023-08-07T20:36:48;8.03;;;1.87;;
18780;SDS011;9519;51.890;8.970;2023-08-07T20:41:50;8.10;;;2.63;;
18780;SDS011;9519;51.890;8.970;2023-08-07T20:46:54;12.17;;;2.70;;
18780;SDS011;9519;51.890;8.970;2023-08-07T20:51:56;8.73;;;2.73;;
18780;SDS011;9519;51.890;8.970;2023-08-07T20:56:58;5.70;;;2.23;;
18780;SDS011;9519;51.890;8.970;2023-08-07T21:02:02;6.90;;;2.17;;
18780;SDS011;9519;51.890;8.970;2023-08-07T21:07:05;6.43;;;2.20;;
18780;SDS011;9519;51.890;8.970;2023-08-07T21:12:07;7.63;;;2.70;;
18780;SDS011;9519;51.890;8.970;2023-08-07T21:17:11;7.60;;;2.50;;
18780;SDS011;9519;51.890;8.970;2023-08-07T21:22:13;7.40;;;2.60;;
18780;SDS011;9519;51.890;8.970;2023-08-07T21:27:15;8.43;;;2.53;;
18780;SDS011;9519;51.890;8.970;2023-08-07T21:32:19;10.70;;;3.43;;
18780;SDS011;9519;51.890;8.970;2023-08-07T21:37:21;9.57;;;3.37;;
18780;SDS011;9519;51.890;8.970;2023-08-07T21:42:30;10.83;;;3.67;;
18780;SDS011;9519;51.890;8.970;2023-08-07T21:47:34;8.30;;;3.47;;
18780;SDS011;9519;51.890;8.970;2023-08-07T21:52:40;10.33;;;3.73;;
18780;SDS011;9519;51.890;8.970;2023-08-07T21:57:42;7.00;;;2.80;;
18780;SDS011;9519;51.890;8.970;2023-08-07T22:02:46;8.17;;;3.40;;
18780;SDS011;9519;51.890;8.970;2023-08-07T22:07:49;8.80;;;3.10;;
18780;SDS011;9519;51.890;8.970;2023-08-07T22:12:51;7.70;;;3.30;;
18780;SDS011;9519;51.890;8.970;2023-08-07T22:17:55;8.03;;;3.07;;
18780;SDS011;9519;51.890;8.970;2023-08-07T22:22:57;8.13;;;3.33;;
18780;SDS011;9519;51.890;8.970;2023-08-07T22:27:59;16.50;;;7.90;;
18780;SDS011;9519;51.890;8.970;2023-08-07T22:33:03;20.17;;;10.50;;
18780;SDS011;9519;51.890;8.970;2023-08-07T22:38:05;24.37;;;11.17;;
18780;SDS011;9519;51.890;8.970;2023-08-07T22:43:07;19.70;;;10.93;;
18780;SDS011;9519;51.890;8.970;2023-08-07T22:48:11;14.73;;;8.23;;
18780;SDS011;9519;51.890;8.970;2023-08-07T22:53:13;15.03;;;7.27;;
18780;SDS011;9519;51.890;8.970;2023-08-07T22:58:15;13.93;;;7.03;;
18780;SDS011;9519;51.890;8.970;2023-08-07T23:03:18;28.73;;;13.30;;
18780;SDS011;9519;51.890;8.970;2023-08-07T23:08:20;17.33;;;8.37;;
18780;SDS011;9519;51.890;8.970;2023-08-07T23:13:22;16.30;;;10.07;;
18780;SDS011;9519;51.890;8.970;2023-08-07T23:18:26;21.87;;;10.87;;
18780;SDS011;9519;51.890;8.970;2023-08-07T23:23:28;13.87;;;8.27;;
18780;SDS011;9519;51.890;8.970;2023-08-07T23:28:30;11.03;;;5.87;;
18780;SDS011;9519;51.890;8.970;2023-08-07T23:33:33;9.20;;;5.30;;
18780;SDS011;9519;51.890;8.970;2023-08-07T23:38:35;10.57;;;6.03;;
18780;SDS011;9519;51.890;8.970;2023-08-07T23:43:37;20.57;;;11.87;;
18780;SDS011;9519;51.890;8.970;2023-08-07T23:48:41;21.17;;;10.77;;
18780;SDS011;9519;51.890;8.970;2023-08-07T23:53:43;23.07;;;12.77;;
18780;SDS011;9519;51.890;8.970;2023-08-07T23:58:45;22.13;;;12.20;;
